sensor_id;sensor_type;location;lat;lon;timestamp;P1;durP1;ratioP1;P2;durP2;ratioP2
20441;SDS011;10380;52.102;20.614;2022-11-24T00:01:22;48.63;;;23.47;;
20441;SDS011;10380;52.102;20.614;2022-11-24T00:03:55;54.20;;;24.03;;
20441;SDS011;10380;52.102;20.614;2022-11-24T00:06:27;54.30;;;25.33;;
20441;SDS011;10380;52.102;20.614;2022-11-24T00:08:56;50.97;;;25.13;;
20441;SDS011;10380;52.102;20.614;2022-11-24T00:11:24;54.40;;;25.23;;
20441;SDS011;10380;52.102;20.614;2022-11-24T00:13:53;52.27;;;24.87;;
20441;SDS011;10380;52.102;20.614;2022-11-24T00:16:22;51.20;;;24.23;;
20441;SDS011;10380;52.102;20.614;2022-11-24T00:18:50;53.53;;;24.40;;
20441;SDS011;10380;52.102;20.614;2022-11-24T00:21:19;47.50;;;22.67;;
20441;SDS011;10380;52.102;20.614;2022-11-24T00:23:47;46.10;;;21.90;;
20441;SDS011;10380;52.102;20.614;2022-11-24T00:26:16;46.27;;;22.40;;
20441;SDS011;10380;52.102;20.614;2022-11-24T00:28:48;49.70;;;21.90;;
20441;SDS011;10380;52.102;20.614;2022-11-24T00:31:21;48.87;;;22.33;;
20441;SDS011;10380;52.102;20.614;2022-11-24T00:33:55;43.97;;;22.57;;
20441;SDS011;10380;52.102;20.614;2022-11-24T00:36:24;39.10;;;18.43;;
20441;SDS011;10380;52.102;20.614;2022-11-24T00:38:54;46.57;;;22.10;;
20441;SDS011;10380;52.102;20.614;2022-11-24T00:41:23;53.73;;;23.90;;
20441;SDS011;10380;52.102;20.614;2022-11-24T00:43:51;53.80;;;24.30;;
20441;SDS011;10380;52.102;20.614;2022-11-24T00:46:19;53.87;;;23.77;;
20441;SDS011;10380;52.102;20.614;2022-11-24T00:48:47;50.70;;;23.50;;
20441;SDS011;10380;52.102;20.614;2022-11-24T00:51:14;56.77;;;24.97;;
20441;SDS011;10380;52.102;20.614;2022-11-24T00:53:43;54.47;;;23.13;;
20441;SDS011;10380;52.102;20.614;2022-11-24T00:56:11;46.57;;;23.87;;
20441;SDS011;10380;52.102;20.614;2022-11-24T00:58:38;47.50;;;23.57;;
20441;SDS011;10380;52.102;20.614;2022-11-24T01:03:38;47.80;;;23.50;;
20441;SDS011;10380;52.102;20.614;2022-11-24T01:06:07;52.67;;;23.10;;
20441;SDS011;10380;52.102;20.614;2022-11-24T01:08:38;46.77;;;22.77;;
20441;SDS011;10380;52.102;20.614;2022-11-24T01:11:13;46.20;;;20.60;;
20441;SDS011;10380;52.102;20.614;2022-11-24T01:13:43;53.53;;;22.27;;
20441;SDS011;10380;52.102;20.614;2022-11-24T01:16:13;42.10;;;21.17;;
20441;SDS011;10380;52.102;20.614;2022-11-24T01:18:41;39.77;;;20.23;;
20441;SDS011;10380;52.102;20.614;2022-11-24T01:21:08;46.90;;;21.23;;
20441;SDS011;10380;52.102;20.614;2022-11-24T01:23:36;48.37;;;22.87;;
20441;SDS011;10380;52.102;20.614;2022-11-24T01:26:04;49.43;;;21.47;;
20441;SDS011;10380;52.102;20.614;2022-11-24T01:28:32;47.37;;;21.83;;
20441;SDS011;10380;52.102;20.614;2022-11-24T01:31:02;47.23;;;20.80;;
20441;SDS011;10380;52.102;20.614;2022-11-24T01:33:31;49.50;;;23.10;;
20441;SDS011;10380;52.102;20.614;2022-11-24T01:35:59;54.27;;;22.83;;
20441;SDS011;10380;52.102;20.614;2022-11-24T01:38:26;54.63;;;22.57;;
20441;SDS011;10380;52.102;20.614;2022-11-24T01:41:10;54.23;;;21.73;;
20441;SDS011;10380;52.102;20.614;2022-11-24T01:43:42;49.13;;;21.97;;
20441;SDS011;10380;52.102;20.614;2022-11-24T01:48:55;47.87;;;21.80;;
20441;SDS011;10380;52.102;20.614;2022-11-24T01:51:48;47.17;;;20.97;;
20441;SDS011;10380;52.102;20.614;2022-11-24T01:54:21;52.90;;;22.63;;
20441;SDS011;10380;52.102;20.614;2022-11-24T01:56:53;45.80;;;21.90;;
20441;SDS011;10380;52.102;20.614;2022-11-24T01:59:25;46.37;;;22.70;;
20441;SDS011;10380;52.102;20.614;2022-11-24T02:01:52;44.23;;;21.97;;
20441;SDS011;10380;52.102;20.614;2022-11-24T02:04:23;48.27;;;20.70;;
20441;SDS011;10380;52.102;20.614;2022-11-24T02:06:54;44.60;;;20.90;;
20441;SDS011;10380;52.102;20.614;2022-11-24T02:10:08;53.13;;;22.80;;
20441;SDS011;10380;52.102;20.614;2022-11-24T02:12:17;41.00;;;21.00;;
20441;SDS011;10380;52.102;20.614;2022-11-24T02:14:44;50.30;;;21.57;;
20441;SDS011;10380;52.102;20.614;2022-11-24T02:17:12;52.73;;;23.20;;
20441;SDS011;10380;52.102;20.614;2022-11-24T02:22:07;44.70;;;19.80;;
20441;SDS011;10380;52.102;20.614;2022-11-24T02:27:19;44.00;;;20.53;;
20441;SDS011;10380;52.102;20.614;2022-11-24T02:29:46;45.93;;;20.73;;
20441;SDS011;10380;52.102;20.614;2022-11-24T02:32:15;41.17;;;19.80;;
20441;SDS011;10380;52.102;20.614;2022-11-24T02:34:43;43.67;;;19.17;;
20441;SDS011;10380;52.102;20.614;2022-11-24T02:37:10;38.30;;;19.63;;
20441;SDS011;10380;52.102;20.614;2022-11-24T02:39:37;44.63;;;20.03;;
20441;SDS011;10380;52.102;20.614;2022-11-24T02:42:08;48.53;;;20.87;;
20441;SDS011;10380;52.102;20.614;2022-11-24T02:44:40;43.80;;;20.70;;
20441;SDS011;10380;52.102;20.614;2022-11-24T02:47:12;44.83;;;20.07;;
20441;SDS011;10380;52.102;20.614;2022-11-24T02:49:39;44.00;;;21.90;;
20441;SDS011;10380;52.102;20.614;2022-11-24T02:52:07;43.37;;;20.40;;
20441;SDS011;10380;52.102;20.614;2022-11-24T02:54:34;44.93;;;21.43;;
20441;SDS011;10380;52.102;20.614;2022-11-24T02:57:02;40.20;;;20.10;;
20441;SDS011;10380;52.102;20.614;2022-11-24T02:59:29;41.77;;;19.87;;
20441;SDS011;10380;52.102;20.614;2022-11-24T03:01:56;44.83;;;20.13;;
20441;SDS011;10380;52.102;20.614;2022-11-24T03:04:24;37.93;;;19.20;;
20441;SDS011;10380;52.102;20.614;2022-11-24T03:06:51;37.07;;;18.60;;
20441;SDS011;10380;52.102;20.614;2022-11-24T03:09:18;45.20;;;19.90;;
20441;SDS011;10380;52.102;20.614;2022-11-24T03:11:45;42.87;;;20.10;;
20441;SDS011;10380;52.102;20.614;2022-11-24T03:14:12;44.13;;;21.00;;
20441;SDS011;10380;52.102;20.614;2022-11-24T03:16:39;39.57;;;19.47;;
20441;SDS011;10380;52.102;20.614;2022-11-24T03:19:07;48.63;;;21.57;;
20441;SDS011;10380;52.102;20.614;2022-11-24T03:21:34;43.77;;;19.70;;
20441;SDS011;10380;52.102;20.614;2022-11-24T03:24:02;41.50;;;19.03;;
20441;SDS011;10380;52.102;20.614;2022-11-24T03:26:29;41.50;;;19.40;;
20441;SDS011;10380;52.102;20.614;2022-11-24T03:28:59;39.47;;;18.77;;
20441;SDS011;10380;52.102;20.614;2022-11-24T03:31:26;36.87;;;16.10;;
20441;SDS011;10380;52.102;20.614;2022-11-24T03:33:53;43.20;;;19.13;;
20441;SDS011;10380;52.102;20.614;2022-11-24T03:36:20;41.93;;;18.80;;
20441;SDS011;10380;52.102;20.614;2022-11-24T03:38:47;36.63;;;18.20;;
20441;SDS011;10380;52.102;20.614;2022-11-24T03:41:15;34.23;;;17.37;;
20441;SDS011;10380;52.102;20.614;2022-11-24T03:43:42;36.80;;;18.03;;
20441;SDS011;10380;52.102;20.614;2022-11-24T03:46:10;37.67;;;18.83;;
20441;SDS011;10380;52.102;20.614;2022-11-24T03:48:38;33.60;;;17.80;;
20441;SDS011;10380;52.102;20.614;2022-11-24T03:51:06;34.60;;;17.17;;
20441;SDS011;10380;52.102;20.614;2022-11-24T03:53:33;37.47;;;18.97;;
20441;SDS011;10380;52.102;20.614;2022-11-24T03:56:01;34.20;;;16.07;;
20441;SDS011;10380;52.102;20.614;2022-11-24T03:58:29;37.30;;;16.67;;
20441;SDS011;10380;52.102;20.614;2022-11-24T04:00:56;36.20;;;16.33;;
20441;SDS011;10380;52.102;20.614;2022-11-24T04:03:23;32.17;;;16.27;;
20441;SDS011;10380;52.102;20.614;2022-11-24T04:05:51;28.13;;;16.10;;
20441;SDS011;10380;52.102;20.614;2022-11-24T04:08:18;35.23;;;15.77;;
20441;SDS011;10380;52.102;20.614;2022-11-24T04:10:49;33.17;;;16.37;;
20441;SDS011;10380;52.102;20.614;2022-11-24T04:13:19;32.83;;;16.47;;
20441;SDS011;10380;52.102;20.614;2022-11-24T04:15:51;33.97;;;17.67;;
20441;SDS011;10380;52.102;20.614;2022-11-24T04:18:18;30.13;;;16.00;;
20441;SDS011;10380;52.102;20.614;2022-11-24T04:20:49;32.17;;;14.80;;
20441;SDS011;10380;52.102;20.614;2022-11-24T04:23:17;29.43;;;15.27;;
20441;SDS011;10380;52.102;20.614;2022-11-24T04:25:45;22.60;;;12.93;;
20441;SDS011;10380;52.102;20.614;2022-11-24T04:28:12;30.30;;;14.93;;
20441;SDS011;10380;52.102;20.614;2022-11-24T04:30:39;27.87;;;13.67;;
20441;SDS011;10380;52.102;20.614;2022-11-24T04:33:10;27.10;;;12.80;;
20441;SDS011;10380;52.102;20.614;2022-11-24T04:35:38;28.67;;;14.23;;
20441;SDS011;10380;52.102;20.614;2022-11-24T04:38:05;28.07;;;14.53;;
20441;SDS011;10380;52.102;20.614;2022-11-24T04:40:32;22.77;;;11.17;;
20441;SDS011;10380;52.102;20.614;2022-11-24T04:42:59;24.87;;;13.50;;
20441;SDS011;10380;52.102;20.614;2022-11-24T04:45:27;24.50;;;12.90;;
20441;SDS011;10380;52.102;20.614;2022-11-24T04:47:54;24.83;;;12.80;;
20441;SDS011;10380;52.102;20.614;2022-11-24T04:50:21;26.40;;;14.00;;
20441;SDS011;10380;52.102;20.614;2022-11-24T04:52:48;25.30;;;12.70;;
20441;SDS011;10380;52.102;20.614;2022-11-24T04:55:15;22.97;;;11.67;;
20441;SDS011;10380;52.102;20.614;2022-11-24T04:57:43;24.93;;;13.63;;
20441;SDS011;10380;52.102;20.614;2022-11-24T05:00:10;24.70;;;12.73;;
20441;SDS011;10380;52.102;20.614;2022-11-24T05:02:38;23.57;;;11.77;;
20441;SDS011;10380;52.102;20.614;2022-11-24T05:05:05;24.70;;;13.07;;
20441;SDS011;10380;52.102;20.614;2022-11-24T05:07:33;24.83;;;12.30;;
20441;SDS011;10380;52.102;20.614;2022-11-24T05:10:00;22.93;;;11.40;;
20441;SDS011;10380;52.102;20.614;2022-11-24T05:12:55;24.73;;;11.67;;
20441;SDS011;10380;52.102;20.614;2022-11-24T05:15:24;23.43;;;12.03;;
20441;SDS011;10380;52.102;20.614;2022-11-24T05:17:52;24.40;;;12.37;;
20441;SDS011;10380;52.102;20.614;2022-11-24T05:20:21;24.67;;;12.80;;
20441;SDS011;10380;52.102;20.614;2022-11-24T05:22:49;25.57;;;12.93;;
20441;SDS011;10380;52.102;20.614;2022-11-24T05:25:16;22.60;;;12.77;;
20441;SDS011;10380;52.102;20.614;2022-11-24T05:27:43;21.30;;;11.70;;
20441;SDS011;10380;52.102;20.614;2022-11-24T05:30:10;29.60;;;12.63;;
20441;SDS011;10380;52.102;20.614;2022-11-24T05:32:38;27.50;;;13.60;;
20441;SDS011;10380;52.102;20.614;2022-11-24T05:35:05;21.23;;;11.63;;
20441;SDS011;10380;52.102;20.614;2022-11-24T05:37:35;26.97;;;12.37;;
20441;SDS011;10380;52.102;20.614;2022-11-24T05:40:03;27.53;;;13.00;;
20441;SDS011;10380;52.102;20.614;2022-11-24T05:42:32;21.57;;;12.33;;
20441;SDS011;10380;52.102;20.614;2022-11-24T05:45:14;23.30;;;12.03;;
20441;SDS011;10380;52.102;20.614;2022-11-24T05:47:43;23.27;;;11.70;;
20441;SDS011;10380;52.102;20.614;2022-11-24T05:50:12;24.10;;;12.57;;
20441;SDS011;10380;52.102;20.614;2022-11-24T05:52:40;24.70;;;12.73;;
20441;SDS011;10380;52.102;20.614;2022-11-24T05:55:07;30.10;;;13.63;;
20441;SDS011;10380;52.102;20.614;2022-11-24T05:57:36;28.17;;;13.63;;
20441;SDS011;10380;52.102;20.614;2022-11-24T06:00:03;28.60;;;13.07;;
20441;SDS011;10380;52.102;20.614;2022-11-24T06:02:32;27.33;;;14.27;;
20441;SDS011;10380;52.102;20.614;2022-11-24T06:04:59;32.57;;;14.40;;
20441;SDS011;10380;52.102;20.614;2022-11-24T06:07:26;30.93;;;15.03;;
20441;SDS011;10380;52.102;20.614;2022-11-24T06:09:53;27.50;;;14.13;;
20441;SDS011;10380;52.102;20.614;2022-11-24T06:12:20;32.60;;;14.40;;
20441;SDS011;10380;52.102;20.614;2022-11-24T06:14:47;25.20;;;14.43;;
20441;SDS011;10380;52.102;20.614;2022-11-24T06:17:13;28.97;;;13.60;;
20441;SDS011;10380;52.102;20.614;2022-11-24T06:19:40;23.43;;;12.77;;
20441;SDS011;10380;52.102;20.614;2022-11-24T06:22:10;26.43;;;13.83;;
20441;SDS011;10380;52.102;20.614;2022-11-24T06:24:38;31.80;;;14.77;;
20441;SDS011;10380;52.102;20.614;2022-11-24T06:27:04;35.47;;;16.03;;
20441;SDS011;10380;52.102;20.614;2022-11-24T06:29:32;37.57;;;16.97;;
20441;SDS011;10380;52.102;20.614;2022-11-24T06:31:58;26.60;;;13.70;;
20441;SDS011;10380;52.102;20.614;2022-11-24T06:34:26;27.87;;;14.23;;
20441;SDS011;10380;52.102;20.614;2022-11-24T06:36:52;32.17;;;15.90;;
20441;SDS011;10380;52.102;20.614;2022-11-24T06:39:19;26.23;;;12.70;;
20441;SDS011;10380;52.102;20.614;2022-11-24T06:41:48;24.60;;;12.87;;
20441;SDS011;10380;52.102;20.614;2022-11-24T06:44:15;31.20;;;14.33;;
20441;SDS011;10380;52.102;20.614;2022-11-24T06:46:42;24.13;;;13.33;;
20441;SDS011;10380;52.102;20.614;2022-11-24T06:49:09;23.27;;;12.10;;
20441;SDS011;10380;52.102;20.614;2022-11-24T06:51:36;26.77;;;12.37;;
20441;SDS011;10380;52.102;20.614;2022-11-24T06:54:06;24.00;;;11.43;;
20441;SDS011;10380;52.102;20.614;2022-11-24T06:56:34;21.53;;;12.37;;
20441;SDS011;10380;52.102;20.614;2022-11-24T06:59:01;24.70;;;12.67;;
20441;SDS011;10380;52.102;20.614;2022-11-24T07:01:29;22.47;;;11.50;;
20441;SDS011;10380;52.102;20.614;2022-11-24T07:03:57;22.77;;;12.13;;
20441;SDS011;10380;52.102;20.614;2022-11-24T07:06:24;26.17;;;12.20;;
20441;SDS011;10380;52.102;20.614;2022-11-24T07:08:52;28.23;;;13.13;;
20441;SDS011;10380;52.102;20.614;2022-11-24T07:11:20;24.10;;;13.47;;
20441;SDS011;10380;52.102;20.614;2022-11-24T07:13:48;23.47;;;12.87;;
20441;SDS011;10380;52.102;20.614;2022-11-24T07:16:24;27.10;;;12.60;;
20441;SDS011;10380;52.102;20.614;2022-11-24T07:18:52;25.50;;;14.00;;
20441;SDS011;10380;52.102;20.614;2022-11-24T07:21:20;34.20;;;15.30;;
20441;SDS011;10380;52.102;20.614;2022-11-24T07:23:48;41.83;;;21.07;;
20441;SDS011;10380;52.102;20.614;2022-11-24T07:26:16;36.73;;;18.13;;
20441;SDS011;10380;52.102;20.614;2022-11-24T07:28:44;34.83;;;17.23;;
20441;SDS011;10380;52.102;20.614;2022-11-24T07:31:12;37.87;;;17.67;;
20441;SDS011;10380;52.102;20.614;2022-11-24T07:33:49;29.23;;;14.77;;
20441;SDS011;10380;52.102;20.614;2022-11-24T07:36:17;37.23;;;14.33;;
20441;SDS011;10380;52.102;20.614;2022-11-24T07:38:45;30.23;;;16.17;;
20441;SDS011;10380;52.102;20.614;2022-11-24T07:41:13;37.53;;;14.43;;
20441;SDS011;10380;52.102;20.614;2022-11-24T07:43:41;26.87;;;13.20;;
20441;SDS011;10380;52.102;20.614;2022-11-24T07:46:10;31.27;;;13.90;;
20441;SDS011;10380;52.102;20.614;2022-11-24T07:48:38;32.20;;;15.03;;
20441;SDS011;10380;52.102;20.614;2022-11-24T07:51:06;32.80;;;14.70;;
20441;SDS011;10380;52.102;20.614;2022-11-24T07:53:33;30.47;;;13.93;;
20441;SDS011;10380;52.102;20.614;2022-11-24T07:56:02;30.20;;;15.73;;
20441;SDS011;10380;52.102;20.614;2022-11-24T07:58:31;29.63;;;15.40;;
20441;SDS011;10380;52.102;20.614;2022-11-24T08:01:07;29.73;;;16.03;;
20441;SDS011;10380;52.102;20.614;2022-11-24T08:03:39;30.77;;;14.07;;
20441;SDS011;10380;52.102;20.614;2022-11-24T08:06:06;32.07;;;16.23;;
20441;SDS011;10380;52.102;20.614;2022-11-24T08:08:51;27.67;;;15.97;;
20441;SDS011;10380;52.102;20.614;2022-11-24T08:11:18;28.57;;;14.97;;
20441;SDS011;10380;52.102;20.614;2022-11-24T08:13:45;31.53;;;15.60;;
20441;SDS011;10380;52.102;20.614;2022-11-24T08:16:14;38.87;;;16.93;;
20441;SDS011;10380;52.102;20.614;2022-11-24T08:18:42;34.50;;;16.07;;
20441;SDS011;10380;52.102;20.614;2022-11-24T08:21:13;26.97;;;14.17;;
20441;SDS011;10380;52.102;20.614;2022-11-24T08:23:40;32.30;;;15.17;;
20441;SDS011;10380;52.102;20.614;2022-11-24T08:26:11;33.27;;;15.77;;
20441;SDS011;10380;52.102;20.614;2022-11-24T08:28:42;32.27;;;16.83;;
20441;SDS011;10380;52.102;20.614;2022-11-24T08:31:11;32.37;;;14.73;;
20441;SDS011;10380;52.102;20.614;2022-11-24T08:33:40;32.10;;;16.87;;
20441;SDS011;10380;52.102;20.614;2022-11-24T08:36:08;36.17;;;16.57;;
20441;SDS011;10380;52.102;20.614;2022-11-24T08:38:37;39.20;;;17.00;;
20441;SDS011;10380;52.102;20.614;2022-11-24T08:41:09;34.63;;;15.97;;
20441;SDS011;10380;52.102;20.614;2022-11-24T08:43:37;30.20;;;15.50;;
20441;SDS011;10380;52.102;20.614;2022-11-24T08:46:05;29.97;;;17.40;;
20441;SDS011;10380;52.102;20.614;2022-11-24T08:48:35;37.47;;;16.60;;
20441;SDS011;10380;52.102;20.614;2022-11-24T08:51:06;35.87;;;15.60;;
20441;SDS011;10380;52.102;20.614;2022-11-24T08:53:38;36.67;;;16.20;;
20441;SDS011;10380;52.102;20.614;2022-11-24T08:56:06;28.83;;;15.63;;
20441;SDS011;10380;52.102;20.614;2022-11-24T08:58:34;27.83;;;14.57;;
20441;SDS011;10380;52.102;20.614;2022-11-24T09:01:05;35.80;;;15.77;;
20441;SDS011;10380;52.102;20.614;2022-11-24T09:03:33;29.63;;;14.83;;
20441;SDS011;10380;52.102;20.614;2022-11-24T09:06:01;25.47;;;13.07;;
20441;SDS011;10380;52.102;20.614;2022-11-24T09:08:29;29.37;;;14.27;;
20441;SDS011;10380;52.102;20.614;2022-11-24T09:11:00;28.93;;;14.23;;
20441;SDS011;10380;52.102;20.614;2022-11-24T09:13:27;29.57;;;14.30;;
20441;SDS011;10380;52.102;20.614;2022-11-24T09:15:55;29.80;;;13.83;;
20441;SDS011;10380;52.102;20.614;2022-11-24T09:18:22;26.43;;;15.00;;
20441;SDS011;10380;52.102;20.614;2022-11-24T09:21:04;29.13;;;14.10;;
20441;SDS011;10380;52.102;20.614;2022-11-24T09:23:36;23.43;;;12.73;;
20441;SDS011;10380;52.102;20.614;2022-11-24T09:28:35;29.23;;;14.83;;
20441;SDS011;10380;52.102;20.614;2022-11-24T09:31:03;26.53;;;14.43;;
20441;SDS011;10380;52.102;20.614;2022-11-24T09:33:33;29.20;;;15.30;;
20441;SDS011;10380;52.102;20.614;2022-11-24T09:36:00;28.77;;;15.03;;
20441;SDS011;10380;52.102;20.614;2022-11-24T09:38:28;24.87;;;13.70;;
20441;SDS011;10380;52.102;20.614;2022-11-24T09:40:55;23.57;;;13.63;;
20441;SDS011;10380;52.102;20.614;2022-11-24T09:43:43;25.37;;;13.23;;
20441;SDS011;10380;52.102;20.614;2022-11-24T09:46:26;23.43;;;12.07;;
20441;SDS011;10380;52.102;20.614;2022-11-24T09:49:18;20.50;;;11.67;;
20441;SDS011;10380;52.102;20.614;2022-11-24T09:51:53;22.83;;;12.13;;
20441;SDS011;10380;52.102;20.614;2022-11-24T09:54:25;29.67;;;13.93;;
20441;SDS011;10380;52.102;20.614;2022-11-24T09:56:56;24.37;;;13.17;;
20441;SDS011;10380;52.102;20.614;2022-11-24T09:59:26;21.43;;;12.20;;
20441;SDS011;10380;52.102;20.614;2022-11-24T10:01:53;23.73;;;12.83;;
20441;SDS011;10380;52.102;20.614;2022-11-24T10:15:20;23.17;;;12.87;;
20441;SDS011;10380;52.102;20.614;2022-11-24T10:23:49;23.73;;;13.67;;
20441;SDS011;10380;52.102;20.614;2022-11-24T10:28:55;24.73;;;13.20;;
20441;SDS011;10380;52.102;20.614;2022-11-24T10:31:33;27.87;;;12.97;;
20441;SDS011;10380;52.102;20.614;2022-11-24T10:34:11;22.83;;;12.77;;
20441;SDS011;10380;52.102;20.614;2022-11-24T10:45:13;26.63;;;13.30;;
20441;SDS011;10380;52.102;20.614;2022-11-24T10:47:42;24.07;;;13.43;;
20441;SDS011;10380;52.102;20.614;2022-11-24T10:50:23;26.83;;;14.07;;
20441;SDS011;10380;52.102;20.614;2022-11-24T10:52:57;26.20;;;13.17;;
20441;SDS011;10380;52.102;20.614;2022-11-24T10:58:23;33.73;;;14.87;;
20441;SDS011;10380;52.102;20.614;2022-11-24T11:00:52;34.93;;;16.23;;
20441;SDS011;10380;52.102;20.614;2022-11-24T11:03:22;33.23;;;14.87;;
20441;SDS011;10380;52.102;20.614;2022-11-24T11:08:38;28.37;;;15.43;;
20441;SDS011;10380;52.102;20.614;2022-11-24T11:11:25;33.10;;;15.30;;
20441;SDS011;10380;52.102;20.614;2022-11-24T11:13:54;30.57;;;15.67;;
20441;SDS011;10380;52.102;20.614;2022-11-24T11:16:37;27.13;;;13.73;;
20441;SDS011;10380;52.102;20.614;2022-11-24T11:19:05;33.83;;;15.97;;
20441;SDS011;10380;52.102;20.614;2022-11-24T11:27:36;29.27;;;16.33;;
20441;SDS011;10380;52.102;20.614;2022-11-24T11:30:38;29.17;;;14.90;;
20441;SDS011;10380;52.102;20.614;2022-11-24T11:33:22;32.37;;;14.67;;
20441;SDS011;10380;52.102;20.614;2022-11-24T11:36:10;25.00;;;13.97;;
20441;SDS011;10380;52.102;20.614;2022-11-24T11:38:40;31.43;;;15.73;;
20441;SDS011;10380;52.102;20.614;2022-11-24T11:41:12;31.67;;;14.90;;
20441;SDS011;10380;52.102;20.614;2022-11-24T11:43:46;27.80;;;14.83;;
20441;SDS011;10380;52.102;20.614;2022-11-24T11:46:17;24.57;;;13.83;;
20441;SDS011;10380;52.102;20.614;2022-11-24T11:48:46;28.33;;;14.37;;
20441;SDS011;10380;52.102;20.614;2022-11-24T11:57:10;28.03;;;15.20;;
20441;SDS011;10380;52.102;20.614;2022-11-24T12:05:45;37.23;;;17.50;;
20441;SDS011;10380;52.102;20.614;2022-11-24T12:08:43;31.10;;;16.80;;
20441;SDS011;10380;52.102;20.614;2022-11-24T12:11:45;37.33;;;17.57;;
20441;SDS011;10380;52.102;20.614;2022-11-24T12:22:47;30.63;;;15.83;;
20441;SDS011;10380;52.102;20.614;2022-11-24T12:28:04;32.83;;;16.53;;
20441;SDS011;10380;52.102;20.614;2022-11-24T12:33:32;27.73;;;16.33;;
20441;SDS011;10380;52.102;20.614;2022-11-24T12:36:15;34.37;;;16.47;;
20441;SDS011;10380;52.102;20.614;2022-11-24T12:39:04;30.63;;;15.97;;
20441;SDS011;10380;52.102;20.614;2022-11-24T12:50:08;32.57;;;17.17;;
20441;SDS011;10380;52.102;20.614;2022-11-24T12:52:47;38.73;;;17.90;;
20441;SDS011;10380;52.102;20.614;2022-11-24T12:55:24;33.90;;;17.77;;
20441;SDS011;10380;52.102;20.614;2022-11-24T13:06:32;33.50;;;16.93;;
20441;SDS011;10380;52.102;20.614;2022-11-24T13:09:25;33.87;;;18.30;;
20441;SDS011;10380;52.102;20.614;2022-11-24T13:11:53;36.47;;;18.93;;
20441;SDS011;10380;52.102;20.614;2022-11-24T13:14:34;38.17;;;19.90;;
20441;SDS011;10380;52.102;20.614;2022-11-24T13:17:21;34.83;;;18.90;;
20441;SDS011;10380;52.102;20.614;2022-11-24T13:20:25;33.13;;;17.43;;
20441;SDS011;10380;52.102;20.614;2022-11-24T13:23:00;33.80;;;16.70;;
20441;SDS011;10380;52.102;20.614;2022-11-24T13:25:31;31.90;;;17.70;;
20441;SDS011;10380;52.102;20.614;2022-11-24T13:27:59;33.10;;;17.47;;
20441;SDS011;10380;52.102;20.614;2022-11-24T13:36:28;38.23;;;19.67;;
20441;SDS011;10380;52.102;20.614;2022-11-24T13:38:40;32.90;;;18.97;;
20441;SDS011;10380;52.102;20.614;2022-11-24T13:41:58;33.87;;;17.57;;
20441;SDS011;10380;52.102;20.614;2022-11-24T13:49:56;32.43;;;17.83;;
20441;SDS011;10380;52.102;20.614;2022-11-24T13:57:59;34.83;;;18.30;;
20441;SDS011;10380;52.102;20.614;2022-11-24T14:00:31;31.80;;;17.33;;
20441;SDS011;10380;52.102;20.614;2022-11-24T14:03:05;36.40;;;19.30;;
20441;SDS011;10380;52.102;20.614;2022-11-24T14:05:56;34.27;;;19.07;;
20441;SDS011;10380;52.102;20.614;2022-11-24T14:08:25;38.10;;;18.97;;
20441;SDS011;10380;52.102;20.614;2022-11-24T14:10:55;39.37;;;19.50;;
20441;SDS011;10380;52.102;20.614;2022-11-24T14:13:25;34.67;;;18.87;;
20441;SDS011;10380;52.102;20.614;2022-11-24T14:18:37;48.00;;;23.53;;
20441;SDS011;10380;52.102;20.614;2022-11-24T14:24:07;38.47;;;18.10;;
20441;SDS011;10380;52.102;20.614;2022-11-24T14:26:44;44.33;;;22.57;;
20441;SDS011;10380;52.102;20.614;2022-11-24T14:29:22;34.63;;;18.30;;
20441;SDS011;10380;52.102;20.614;2022-11-24T14:31:56;44.93;;;21.57;;
20441;SDS011;10380;52.102;20.614;2022-11-24T14:34:29;43.30;;;21.10;;
20441;SDS011;10380;52.102;20.614;2022-11-24T14:36:58;41.00;;;21.03;;
20441;SDS011;10380;52.102;20.614;2022-11-24T14:39:26;40.03;;;20.20;;
20441;SDS011;10380;52.102;20.614;2022-11-24T14:44:30;42.13;;;21.40;;
20441;SDS011;10380;52.102;20.614;2022-11-24T14:47:06;41.97;;;23.73;;
20441;SDS011;10380;52.102;20.614;2022-11-24T14:49:42;40.80;;;22.30;;
20441;SDS011;10380;52.102;20.614;2022-11-24T14:52:14;46.60;;;24.87;;
20441;SDS011;10380;52.102;20.614;2022-11-24T14:54:44;36.30;;;20.50;;
20441;SDS011;10380;52.102;20.614;2022-11-24T14:57:33;40.57;;;20.37;;
20441;SDS011;10380;52.102;20.614;2022-11-24T15:02:55;37.37;;;19.87;;
20441;SDS011;10380;52.102;20.614;2022-11-24T15:05:52;39.63;;;20.63;;
20441;SDS011;10380;52.102;20.614;2022-11-24T15:08:19;37.43;;;20.63;;
20441;SDS011;10380;52.102;20.614;2022-11-24T15:10:47;43.43;;;22.20;;
20441;SDS011;10380;52.102;20.614;2022-11-24T15:13:21;44.33;;;23.30;;
20441;SDS011;10380;52.102;20.614;2022-11-24T15:18:35;79.23;;;36.70;;
20441;SDS011;10380;52.102;20.614;2022-11-24T15:21:06;81.80;;;41.47;;
20441;SDS011;10380;52.102;20.614;2022-11-24T15:23:33;78.47;;;36.30;;
20441;SDS011;10380;52.102;20.614;2022-11-24T15:28:28;92.47;;;39.20;;
20441;SDS011;10380;52.102;20.614;2022-11-24T15:31:03;60.97;;;28.50;;
20441;SDS011;10380;52.102;20.614;2022-11-24T15:33:32;46.47;;;25.37;;
20441;SDS011;10380;52.102;20.614;2022-11-24T15:35:59;41.37;;;22.40;;
20441;SDS011;10380;52.102;20.614;2022-11-24T15:38:26;61.07;;;25.70;;
20441;SDS011;10380;52.102;20.614;2022-11-24T15:40:53;48.87;;;23.17;;
20441;SDS011;10380;52.102;20.614;2022-11-24T15:43:33;53.13;;;25.63;;
20441;SDS011;10380;52.102;20.614;2022-11-24T15:46:02;53.27;;;25.23;;
20441;SDS011;10380;52.102;20.614;2022-11-24T15:48:30;55.97;;;28.37;;
20441;SDS011;10380;52.102;20.614;2022-11-24T15:50:57;59.43;;;29.93;;
20441;SDS011;10380;52.102;20.614;2022-11-24T15:53:33;79.27;;;40.47;;
20441;SDS011;10380;52.102;20.614;2022-11-24T15:56:05;71.23;;;33.93;;
20441;SDS011;10380;52.102;20.614;2022-11-24T15:58:37;68.37;;;32.43;;
20441;SDS011;10380;52.102;20.614;2022-11-24T16:01:04;67.70;;;35.40;;
20441;SDS011;10380;52.102;20.614;2022-11-24T16:03:32;65.73;;;33.23;;
20441;SDS011;10380;52.102;20.614;2022-11-24T16:06:18;50.00;;;24.77;;
20441;SDS011;10380;52.102;20.614;2022-11-24T16:08:51;70.03;;;39.03;;
20441;SDS011;10380;52.102;20.614;2022-11-24T16:11:19;61.90;;;29.60;;
20441;SDS011;10380;52.102;20.614;2022-11-24T16:13:46;57.30;;;31.43;;
20441;SDS011;10380;52.102;20.614;2022-11-24T16:16:18;46.03;;;25.07;;
20441;SDS011;10380;52.102;20.614;2022-11-24T16:18:46;42.70;;;24.37;;
20441;SDS011;10380;52.102;20.614;2022-11-24T16:21:13;64.03;;;33.67;;
20441;SDS011;10380;52.102;20.614;2022-11-24T16:23:39;74.70;;;42.13;;
20441;SDS011;10380;52.102;20.614;2022-11-24T16:26:08;83.63;;;56.93;;
20441;SDS011;10380;52.102;20.614;2022-11-24T16:28:35;65.23;;;36.33;;
20441;SDS011;10380;52.102;20.614;2022-11-24T16:31:02;62.93;;;29.17;;
20441;SDS011;10380;52.102;20.614;2022-11-24T16:33:29;64.40;;;28.90;;
20441;SDS011;10380;52.102;20.614;2022-11-24T16:35:56;57.90;;;27.80;;
20441;SDS011;10380;52.102;20.614;2022-11-24T16:38:24;58.80;;;31.33;;